This is the latest recevied weather packets stored in our database for station/object NG6B-2. If no packets are shown the sender has not sent any weather packets the latest 10 day(s).
| Time | Temp. | Humidity | Pressure | Rain* | Wind** | Luminosity | Snow |
|---|---|---|---|---|---|---|---|
| 1777788185 | 22.78° C | 31% | 1006.8 hPa | 0 mm | - | - | - |
| 1777786384 | 23.33° C | 30% | 1006.9 hPa | 0 mm | - | - | - |
| 1777784583 | 23.33° C | 30% | 1007.1 hPa | 0 mm | - | - | - |
| 1777782782 | 23.89° C | 28% | 1006.9 hPa | 0 mm | - | - | - |
| 1777780981 | 23.89° C | 27% | 1006.4 hPa | 0 mm | - | - | - |
| 1777779180 | 24.44° C | 25% | 1006.2 hPa | 0 mm | - | - | - |
| 1777777379 | 25° C | 24% | 1005.9 hPa | 0 mm | - | - | - |
| 1777775578 | 25° C | 24% | 1005.6 hPa | 0 mm | - | - | - |
| 1777773777 | 25.56° C | 22% | 1005.6 hPa | 0 mm | - | - | - |
| 1777771976 | 26.11° C | 22% | 1005.7 hPa | 0 mm | - | - | - |
| 1777770175 | 26.67° C | 20% | 1005.9 hPa | 0 mm | - | - | - |
| 1777768374 | 27.22° C | 18% | 1005.7 hPa | 0 mm | - | - | - |
| 1777766573 | 27.78° C | 18% | 1005.6 hPa | 0 mm | - | - | - |
| 1777764772 | 27.78° C | 18% | 1005.7 hPa | 0 mm | - | - | - |
| 1777762971 | 27.22° C | 18% | 1006 hPa | 0 mm | - | - | - |
| 1777761170 | 27.78° C | 17% | 1006.1 hPa | 0 mm | - | - | - |
| 1777759369 | 28.33° C | 16% | 1006.5 hPa | 0 mm | - | - | - |
| 1777757568 | 28.33° C | 16% | 1007.1 hPa | 0 mm | - | - | - |
| 1777755767 | 28.33° C | 15% | 1007.5 hPa | 0 mm | - | - | - |
| 1777753966 | 27.78° C | 14% | 1008 hPa | 0 mm | - | - | - |
| 1777752165 | 27.22° C | 18% | 1008.4 hPa | 0 mm | - | - | - |
| 1777750364 | 26.11° C | 23% | 1008.7 hPa | 0 mm | - | - | - |
| 1777748563 | 25.56° C | 26% | 1009 hPa | 0 mm | - | - | - |
| 1777746762 | 25° C | 29% | 1009.5 hPa | 0 mm | - | - | - |
| 1777744961 | 24.44° C | 30% | 1009.7 hPa | 0 mm | - | - | - |
* Rain latest hour (hover to see other rain measurements)
** Current wind speed in m/s (hover to see current wind gust speed)